sensor_id;sensor_type;location;lat;lon;timestamp;P1;durP1;ratioP1;P2;durP2;ratioP2
5458;SDS011;2752;49.992;8.422;2023-04-25T00:01:50;5.20;;;3.40;;
5458;SDS011;2752;49.992;8.422;2023-04-25T00:04:17;5.60;;;3.57;;
5458;SDS011;2752;49.992;8.422;2023-04-25T00:06:45;6.43;;;3.90;;
5458;SDS011;2752;49.992;8.422;2023-04-25T00:09:12;6.37;;;3.90;;
5458;SDS011;2752;49.992;8.422;2023-04-25T00:11:39;8.83;;;3.97;;
5458;SDS011;2752;49.992;8.422;2023-04-25T00:14:06;4.97;;;3.77;;
5458;SDS011;2752;49.992;8.422;2023-04-25T00:16:32;11.93;;;4.77;;
5458;SDS011;2752;49.992;8.422;2023-04-25T00:19:00;9.83;;;4.80;;
5458;SDS011;2752;49.992;8.422;2023-04-25T00:21:27;11.37;;;5.00;;
5458;SDS011;2752;49.992;8.422;2023-04-25T00:23:58;7.63;;;4.40;;
5458;SDS011;2752;49.992;8.422;2023-04-25T00:26:25;16.33;;;5.93;;
5458;SDS011;2752;49.992;8.422;2023-04-25T00:28:52;8.97;;;5.23;;
5458;SDS011;2752;49.992;8.422;2023-04-25T00:31:18;8.73;;;5.27;;
5458;SDS011;2752;49.992;8.422;2023-04-25T00:33:45;12.33;;;5.70;;
5458;SDS011;2752;49.992;8.422;2023-04-25T00:36:11;7.90;;;4.50;;
5458;SDS011;2752;49.992;8.422;2023-04-25T00:38:38;7.20;;;4.70;;
5458;SDS011;2752;49.992;8.422;2023-04-25T00:41:07;8.50;;;5.50;;
5458;SDS011;2752;49.992;8.422;2023-04-25T00:43:33;10.40;;;5.20;;
5458;SDS011;2752;49.992;8.422;2023-04-25T00:46:02;10.43;;;5.67;;
5458;SDS011;2752;49.992;8.422;2023-04-25T00:48:29;9.43;;;5.20;;
5458;SDS011;2752;49.992;8.422;2023-04-25T00:50:56;9.43;;;5.83;;
5458;SDS011;2752;49.992;8.422;2023-04-25T00:53:25;8.00;;;5.03;;
5458;SDS011;2752;49.992;8.422;2023-04-25T00:55:52;9.20;;;5.80;;
5458;SDS011;2752;49.992;8.422;2023-04-25T00:58:21;10.37;;;5.40;;
5458;SDS011;2752;49.992;8.422;2023-04-25T01:00:49;6.80;;;4.27;;
5458;SDS011;2752;49.992;8.422;2023-04-25T01:03:17;7.00;;;4.50;;
5458;SDS011;2752;49.992;8.422;2023-04-25T01:05:45;7.67;;;4.43;;
5458;SDS011;2752;49.992;8.422;2023-04-25T01:08:13;7.70;;;4.50;;
5458;SDS011;2752;49.992;8.422;2023-04-25T01:10:40;7.03;;;3.83;;
5458;SDS011;2752;49.992;8.422;2023-04-25T01:13:06;10.70;;;5.07;;
5458;SDS011;2752;49.992;8.422;2023-04-25T01:15:35;9.20;;;4.50;;
5458;SDS011;2752;49.992;8.422;2023-04-25T01:18:02;9.13;;;4.83;;
5458;SDS011;2752;49.992;8.422;2023-04-25T01:20:29;8.17;;;4.93;;
5458;SDS011;2752;49.992;8.422;2023-04-25T01:22:59;8.23;;;4.87;;
5458;SDS011;2752;49.992;8.422;2023-04-25T01:25:28;7.83;;;5.00;;
5458;SDS011;2752;49.992;8.422;2023-04-25T01:27:55;7.13;;;4.33;;
5458;SDS011;2752;49.992;8.422;2023-04-25T01:30:23;6.80;;;4.83;;
5458;SDS011;2752;49.992;8.422;2023-04-25T01:32:51;7.67;;;4.73;;
5458;SDS011;2752;49.992;8.422;2023-04-25T01:35:19;7.40;;;4.90;;
5458;SDS011;2752;49.992;8.422;2023-04-25T01:37:48;14.23;;;5.03;;
5458;SDS011;2752;49.992;8.422;2023-04-25T01:40:17;6.80;;;4.67;;
5458;SDS011;2752;49.992;8.422;2023-04-25T01:42:44;15.13;;;4.73;;
5458;SDS011;2752;49.992;8.422;2023-04-25T01:45:11;8.43;;;5.33;;
5458;SDS011;2752;49.992;8.422;2023-04-25T01:47:38;7.33;;;5.30;;
5458;SDS011;2752;49.992;8.422;2023-04-25T01:50:08;8.23;;;4.60;;
5458;SDS011;2752;49.992;8.422;2023-04-25T01:52:36;7.90;;;5.37;;
5458;SDS011;2752;49.992;8.422;2023-04-25T01:55:02;14.00;;;5.00;;
5458;SDS011;2752;49.992;8.422;2023-04-25T01:57:31;8.80;;;5.40;;
5458;SDS011;2752;49.992;8.422;2023-04-25T01:59:59;7.47;;;4.70;;
5458;SDS011;2752;49.992;8.422;2023-04-25T02:02:27;8.40;;;4.53;;
5458;SDS011;2752;49.992;8.422;2023-04-25T02:04:54;12.63;;;7.33;;
5458;SDS011;2752;49.992;8.422;2023-04-25T02:07:21;10.90;;;5.53;;
5458;SDS011;2752;49.992;8.422;2023-04-25T02:09:48;11.90;;;6.00;;
5458;SDS011;2752;49.992;8.422;2023-04-25T02:12:14;10.37;;;5.53;;
5458;SDS011;2752;49.992;8.422;2023-04-25T02:14:43;11.27;;;5.13;;
5458;SDS011;2752;49.992;8.422;2023-04-25T02:17:09;10.43;;;5.67;;
5458;SDS011;2752;49.992;8.422;2023-04-25T02:19:37;8.70;;;5.47;;
5458;SDS011;2752;49.992;8.422;2023-04-25T02:22:04;10.70;;;6.10;;
5458;SDS011;2752;49.992;8.422;2023-04-25T02:24:31;8.10;;;5.20;;
5458;SDS011;2752;49.992;8.422;2023-04-25T02:26:58;9.87;;;5.10;;
5458;SDS011;2752;49.992;8.422;2023-04-25T02:29:25;8.47;;;5.70;;
5458;SDS011;2752;49.992;8.422;2023-04-25T02:31:53;9.80;;;5.97;;
5458;SDS011;2752;49.992;8.422;2023-04-25T02:34:20;11.60;;;5.70;;
5458;SDS011;2752;49.992;8.422;2023-04-25T02:36:47;10.20;;;6.00;;
5458;SDS011;2752;49.992;8.422;2023-04-25T02:39:14;12.07;;;6.53;;
5458;SDS011;2752;49.992;8.422;2023-04-25T02:41:41;11.77;;;6.47;;
5458;SDS011;2752;49.992;8.422;2023-04-25T02:44:08;10.03;;;5.90;;
5458;SDS011;2752;49.992;8.422;2023-04-25T02:46:34;11.77;;;6.40;;
5458;SDS011;2752;49.992;8.422;2023-04-25T02:49:02;14.27;;;6.50;;
5458;SDS011;2752;49.992;8.422;2023-04-25T02:51:30;9.47;;;6.03;;
5458;SDS011;2752;49.992;8.422;2023-04-25T02:53:57;9.60;;;6.30;;
5458;SDS011;2752;49.992;8.422;2023-04-25T02:56:24;14.90;;;7.63;;
5458;SDS011;2752;49.992;8.422;2023-04-25T02:58:51;13.27;;;7.40;;
5458;SDS011;2752;49.992;8.422;2023-04-25T03:01:18;13.63;;;6.50;;
5458;SDS011;2752;49.992;8.422;2023-04-25T03:03:45;15.03;;;6.83;;
5458;SDS011;2752;49.992;8.422;2023-04-25T03:06:13;15.00;;;6.50;;
5458;SDS011;2752;49.992;8.422;2023-04-25T03:08:39;13.50;;;7.10;;
5458;SDS011;2752;49.992;8.422;2023-04-25T03:11:06;16.40;;;6.73;;
5458;SDS011;2752;49.992;8.422;2023-04-25T03:13:33;16.73;;;7.90;;
5458;SDS011;2752;49.992;8.422;2023-04-25T03:16:00;13.67;;;6.60;;
5458;SDS011;2752;49.992;8.422;2023-04-25T03:18:26;15.00;;;7.43;;
5458;SDS011;2752;49.992;8.422;2023-04-25T03:20:53;12.90;;;7.50;;
5458;SDS011;2752;49.992;8.422;2023-04-25T03:23:21;13.97;;;8.33;;
5458;SDS011;2752;49.992;8.422;2023-04-25T03:25:48;15.00;;;7.30;;
5458;SDS011;2752;49.992;8.422;2023-04-25T03:28:14;14.33;;;7.60;;
5458;SDS011;2752;49.992;8.422;2023-04-25T03:30:41;16.60;;;7.07;;
5458;SDS011;2752;49.992;8.422;2023-04-25T03:33:08;16.00;;;7.97;;
5458;SDS011;2752;49.992;8.422;2023-04-25T03:35:34;17.90;;;8.10;;
5458;SDS011;2752;49.992;8.422;2023-04-25T03:38:01;18.00;;;8.17;;
5458;SDS011;2752;49.992;8.422;2023-04-25T03:40:29;17.13;;;8.73;;
5458;SDS011;2752;49.992;8.422;2023-04-25T03:42:55;13.37;;;8.33;;
5458;SDS011;2752;49.992;8.422;2023-04-25T03:45:22;28.73;;;9.87;;
5458;SDS011;2752;49.992;8.422;2023-04-25T03:47:49;14.87;;;8.10;;
5458;SDS011;2752;49.992;8.422;2023-04-25T03:50:15;18.67;;;9.00;;
5458;SDS011;2752;49.992;8.422;2023-04-25T03:52:42;18.97;;;7.90;;
5458;SDS011;2752;49.992;8.422;2023-04-25T03:55:09;16.63;;;8.30;;
5458;SDS011;2752;49.992;8.422;2023-04-25T03:57:37;25.90;;;9.37;;
5458;SDS011;2752;49.992;8.422;2023-04-25T04:00:04;19.10;;;9.27;;
5458;SDS011;2752;49.992;8.422;2023-04-25T04:02:32;17.47;;;9.57;;
5458;SDS011;2752;49.992;8.422;2023-04-25T04:05:01;19.27;;;9.50;;
5458;SDS011;2752;49.992;8.422;2023-04-25T04:07:28;19.50;;;10.20;;
5458;SDS011;2752;49.992;8.422;2023-04-25T04:09:54;15.30;;;8.27;;
5458;SDS011;2752;49.992;8.422;2023-04-25T04:12:21;17.60;;;9.40;;
5458;SDS011;2752;49.992;8.422;2023-04-25T04:14:49;17.27;;;9.40;;
5458;SDS011;2752;49.992;8.422;2023-04-25T04:17:16;17.50;;;8.10;;
5458;SDS011;2752;49.992;8.422;2023-04-25T04:19:42;24.00;;;9.90;;
5458;SDS011;2752;49.992;8.422;2023-04-25T04:22:09;19.00;;;9.30;;
5458;SDS011;2752;49.992;8.422;2023-04-25T04:24:36;18.30;;;9.50;;
5458;SDS011;2752;49.992;8.422;2023-04-25T04:27:02;19.93;;;10.10;;
5458;SDS011;2752;49.992;8.422;2023-04-25T04:29:29;24.70;;;9.93;;
5458;SDS011;2752;49.992;8.422;2023-04-25T04:31:57;21.00;;;7.70;;
5458;SDS011;2752;49.992;8.422;2023-04-25T04:34:26;11.00;;;5.90;;
5458;SDS011;2752;49.992;8.422;2023-04-25T04:36:52;19.97;;;7.37;;
5458;SDS011;2752;49.992;8.422;2023-04-25T04:39:19;17.93;;;7.00;;
5458;SDS011;2752;49.992;8.422;2023-04-25T04:41:47;13.23;;;6.63;;
5458;SDS011;2752;49.992;8.422;2023-04-25T04:44:13;11.50;;;5.83;;
5458;SDS011;2752;49.992;8.422;2023-04-25T04:46:40;9.70;;;5.20;;
5458;SDS011;2752;49.992;8.422;2023-04-25T04:49:08;19.30;;;7.27;;
5458;SDS011;2752;49.992;8.422;2023-04-25T04:51:35;17.13;;;6.27;;
5458;SDS011;2752;49.992;8.422;2023-04-25T04:54:02;18.67;;;5.20;;
5458;SDS011;2752;49.992;8.422;2023-04-25T04:56:29;11.60;;;5.90;;
5458;SDS011;2752;49.992;8.422;2023-04-25T04:58:56;15.90;;;6.00;;
5458;SDS011;2752;49.992;8.422;2023-04-25T05:01:23;14.43;;;6.40;;
5458;SDS011;2752;49.992;8.422;2023-04-25T05:03:51;19.00;;;6.63;;
5458;SDS011;2752;49.992;8.422;2023-04-25T05:06:19;17.60;;;6.23;;
5458;SDS011;2752;49.992;8.422;2023-04-25T05:08:46;19.23;;;7.27;;
5458;SDS011;2752;49.992;8.422;2023-04-25T05:11:12;15.73;;;6.50;;
5458;SDS011;2752;49.992;8.422;2023-04-25T05:13:39;24.10;;;7.90;;
5458;SDS011;2752;49.992;8.422;2023-04-25T05:16:05;20.70;;;7.63;;
5458;SDS011;2752;49.992;8.422;2023-04-25T05:18:32;22.03;;;8.20;;
5458;SDS011;2752;49.992;8.422;2023-04-25T05:20:59;18.07;;;8.33;;
5458;SDS011;2752;49.992;8.422;2023-04-25T05:23:27;22.07;;;8.70;;
5458;SDS011;2752;49.992;8.422;2023-04-25T05:25:55;16.53;;;8.00;;
5458;SDS011;2752;49.992;8.422;2023-04-25T05:28:22;19.70;;;8.03;;
5458;SDS011;2752;49.992;8.422;2023-04-25T05:30:48;27.53;;;7.50;;
5458;SDS011;2752;49.992;8.422;2023-04-25T05:33:16;17.53;;;7.40;;
5458;SDS011;2752;49.992;8.422;2023-04-25T05:35:42;13.10;;;7.07;;
5458;SDS011;2752;49.992;8.422;2023-04-25T05:38:09;19.37;;;8.67;;
5458;SDS011;2752;49.992;8.422;2023-04-25T05:40:37;15.73;;;7.10;;
5458;SDS011;2752;49.992;8.422;2023-04-25T05:43:04;14.67;;;6.57;;
5458;SDS011;2752;49.992;8.422;2023-04-25T05:45:31;17.00;;;6.67;;
5458;SDS011;2752;49.992;8.422;2023-04-25T05:47:57;23.70;;;6.40;;
5458;SDS011;2752;49.992;8.422;2023-04-25T05:50:24;12.23;;;6.80;;
5458;SDS011;2752;49.992;8.422;2023-04-25T05:52:51;16.53;;;5.20;;
5458;SDS011;2752;49.992;8.422;2023-04-25T05:55:17;15.33;;;4.70;;
5458;SDS011;2752;49.992;8.422;2023-04-25T05:57:45;17.63;;;5.93;;
5458;SDS011;2752;49.992;8.422;2023-04-25T06:00:12;20.90;;;5.13;;
5458;SDS011;2752;49.992;8.422;2023-04-25T06:02:40;21.30;;;5.60;;
5458;SDS011;2752;49.992;8.422;2023-04-25T06:05:08;12.97;;;5.17;;
5458;SDS011;2752;49.992;8.422;2023-04-25T06:07:34;25.87;;;7.60;;
5458;SDS011;2752;49.992;8.422;2023-04-25T06:10:01;29.13;;;5.93;;
5458;SDS011;2752;49.992;8.422;2023-04-25T06:12:31;9.63;;;4.27;;
5458;SDS011;2752;49.992;8.422;2023-04-25T06:14:59;13.50;;;4.83;;
5458;SDS011;2752;49.992;8.422;2023-04-25T06:17:25;16.93;;;4.60;;
5458;SDS011;2752;49.992;8.422;2023-04-25T06:19:52;11.53;;;4.93;;
5458;SDS011;2752;49.992;8.422;2023-04-25T06:22:19;9.87;;;5.10;;
5458;SDS011;2752;49.992;8.422;2023-04-25T06:24:45;26.67;;;5.90;;
5458;SDS011;2752;49.992;8.422;2023-04-25T06:27:12;15.63;;;5.40;;
5458;SDS011;2752;49.992;8.422;2023-04-25T06:29:38;20.90;;;7.13;;
5458;SDS011;2752;49.992;8.422;2023-04-25T06:32:06;18.03;;;6.53;;
5458;SDS011;2752;49.992;8.422;2023-04-25T06:34:33;16.90;;;6.10;;
5458;SDS011;2752;49.992;8.422;2023-04-25T06:37:00;21.30;;;6.03;;
5458;SDS011;2752;49.992;8.422;2023-04-25T06:39:26;14.33;;;6.77;;
5458;SDS011;2752;49.992;8.422;2023-04-25T06:41:53;12.70;;;5.70;;
5458;SDS011;2752;49.992;8.422;2023-04-25T06:44:19;18.23;;;6.30;;
5458;SDS011;2752;49.992;8.422;2023-04-25T06:46:48;10.27;;;5.13;;
5458;SDS011;2752;49.992;8.422;2023-04-25T06:49:16;16.23;;;6.27;;
5458;SDS011;2752;49.992;8.422;2023-04-25T06:51:42;15.87;;;5.33;;
5458;SDS011;2752;49.992;8.422;2023-04-25T06:54:09;9.60;;;4.67;;
5458;SDS011;2752;49.992;8.422;2023-04-25T06:56:35;17.07;;;5.87;;
5458;SDS011;2752;49.992;8.422;2023-04-25T06:59:02;12.40;;;5.60;;
5458;SDS011;2752;49.992;8.422;2023-04-25T07:01:29;16.30;;;5.60;;
5458;SDS011;2752;49.992;8.422;2023-04-25T07:03:55;22.93;;;5.80;;
5458;SDS011;2752;49.992;8.422;2023-04-25T07:06:23;13.20;;;5.40;;
5458;SDS011;2752;49.992;8.422;2023-04-25T07:08:51;13.57;;;5.50;;
5458;SDS011;2752;49.992;8.422;2023-04-25T07:11:18;22.87;;;5.60;;
5458;SDS011;2752;49.992;8.422;2023-04-25T07:13:45;9.80;;;5.00;;
5458;SDS011;2752;49.992;8.422;2023-04-25T07:16:11;10.83;;;5.37;;
5458;SDS011;2752;49.992;8.422;2023-04-25T07:18:38;11.63;;;5.60;;
5458;SDS011;2752;49.992;8.422;2023-04-25T07:21:04;11.27;;;4.90;;
5458;SDS011;2752;49.992;8.422;2023-04-25T07:23:33;9.33;;;4.53;;
5458;SDS011;2752;49.992;8.422;2023-04-25T07:25:59;11.63;;;5.10;;
5458;SDS011;2752;49.992;8.422;2023-04-25T07:28:26;13.70;;;5.10;;
5458;SDS011;2752;49.992;8.422;2023-04-25T07:30:52;10.33;;;5.40;;
5458;SDS011;2752;49.992;8.422;2023-04-25T07:33:19;13.67;;;4.50;;
5458;SDS011;2752;49.992;8.422;2023-04-25T07:35:46;16.50;;;5.40;;
5458;SDS011;2752;49.992;8.422;2023-04-25T07:38:13;17.60;;;5.50;;
5458;SDS011;2752;49.992;8.422;2023-04-25T07:40:41;19.37;;;4.67;;
5458;SDS011;2752;49.992;8.422;2023-04-25T07:43:07;16.10;;;4.33;;
5458;SDS011;2752;49.992;8.422;2023-04-25T07:45:34;15.43;;;4.60;;
5458;SDS011;2752;49.992;8.422;2023-04-25T07:48:00;9.30;;;4.00;;
5458;SDS011;2752;49.992;8.422;2023-04-25T07:50:28;8.80;;;4.13;;
5458;SDS011;2752;49.992;8.422;2023-04-25T07:52:54;8.10;;;3.70;;
5458;SDS011;2752;49.992;8.422;2023-04-25T07:55:21;5.77;;;2.70;;
5458;SDS011;2752;49.992;8.422;2023-04-25T07:57:49;9.60;;;3.30;;
5458;SDS011;2752;49.992;8.422;2023-04-25T08:00:16;6.03;;;3.50;;
5458;SDS011;2752;49.992;8.422;2023-04-25T08:02:43;7.90;;;3.83;;
5458;SDS011;2752;49.992;8.422;2023-04-25T08:05:09;11.40;;;3.37;;
5458;SDS011;2752;49.992;8.422;2023-04-25T08:07:39;6.63;;;2.33;;
5458;SDS011;2752;49.992;8.422;2023-04-25T08:10:06;14.60;;;2.83;;
5458;SDS011;2752;49.992;8.422;2023-04-25T08:12:34;4.53;;;2.53;;
5458;SDS011;2752;49.992;8.422;2023-04-25T08:15:03;6.97;;;2.70;;
5458;SDS011;2752;49.992;8.422;2023-04-25T08:17:31;8.50;;;2.70;;
5458;SDS011;2752;49.992;8.422;2023-04-25T08:19:57;10.00;;;2.80;;
5458;SDS011;2752;49.992;8.422;2023-04-25T08:22:24;8.87;;;2.90;;
5458;SDS011;2752;49.992;8.422;2023-04-25T08:24:51;6.50;;;2.80;;
5458;SDS011;2752;49.992;8.422;2023-04-25T08:27:17;10.90;;;2.60;;
5458;SDS011;2752;49.992;8.422;2023-04-25T08:29:45;3.37;;;2.37;;
5458;SDS011;2752;49.992;8.422;2023-04-25T08:32:13;6.47;;;3.00;;
5458;SDS011;2752;49.992;8.422;2023-04-25T08:34:40;5.40;;;2.53;;
5458;SDS011;2752;49.992;8.422;2023-04-25T08:37:07;4.10;;;2.77;;
5458;SDS011;2752;49.992;8.422;2023-04-25T08:39:35;4.87;;;2.60;;
5458;SDS011;2752;49.992;8.422;2023-04-25T08:42:02;6.57;;;2.57;;
5458;SDS011;2752;49.992;8.422;2023-04-25T08:44:32;7.03;;;2.13;;
5458;SDS011;2752;49.992;8.422;2023-04-25T08:46:59;5.37;;;2.30;;
5458;SDS011;2752;49.992;8.422;2023-04-25T08:49:30;5.90;;;2.13;;
5458;SDS011;2752;49.992;8.422;2023-04-25T08:51:58;6.80;;;2.57;;
5458;SDS011;2752;49.992;8.422;2023-04-25T08:54:27;6.80;;;1.70;;
5458;SDS011;2752;49.992;8.422;2023-04-25T08:56:55;2.30;;;1.80;;
5458;SDS011;2752;49.992;8.422;2023-04-25T08:59:23;14.23;;;2.60;;
5458;SDS011;2752;49.992;8.422;2023-04-25T09:01:50;4.03;;;2.10;;
5458;SDS011;2752;49.992;8.422;2023-04-25T09:04:17;4.90;;;2.53;;
5458;SDS011;2752;49.992;8.422;2023-04-25T09:06:46;5.80;;;2.33;;
5458;SDS011;2752;49.992;8.422;2023-04-25T09:09:13;6.27;;;2.20;;
5458;SDS011;2752;49.992;8.422;2023-04-25T09:11:39;7.50;;;2.30;;
5458;SDS011;2752;49.992;8.422;2023-04-25T09:14:12;4.37;;;2.50;;
5458;SDS011;2752;49.992;8.422;2023-04-25T09:16:56;5.17;;;2.20;;
5458;SDS011;2752;49.992;8.422;2023-04-25T09:19:25;5.40;;;2.80;;
5458;SDS011;2752;49.992;8.422;2023-04-25T09:21:55;4.20;;;2.77;;
5458;SDS011;2752;49.992;8.422;2023-04-25T09:24:33;8.20;;;2.77;;
5458;SDS011;2752;49.992;8.422;2023-04-25T09:27:02;11.00;;;3.23;;
5458;SDS011;2752;49.992;8.422;2023-04-25T09:29:31;10.03;;;4.43;;
5458;SDS011;2752;49.992;8.422;2023-04-25T09:32:11;4.93;;;3.07;;
5458;SDS011;2752;49.992;8.422;2023-04-25T09:34:42;4.50;;;3.00;;
5458;SDS011;2752;49.992;8.422;2023-04-25T09:37:16;7.07;;;3.40;;
5458;SDS011;2752;49.992;8.422;2023-04-25T09:39:44;5.33;;;3.10;;
5458;SDS011;2752;49.992;8.422;2023-04-25T09:42:12;7.87;;;3.50;;
5458;SDS011;2752;49.992;8.422;2023-04-25T09:44:41;12.53;;;4.30;;
5458;SDS011;2752;49.992;8.422;2023-04-25T09:47:10;9.50;;;3.83;;
5458;SDS011;2752;49.992;8.422;2023-04-25T09:49:38;8.40;;;3.77;;
5458;SDS011;2752;49.992;8.422;2023-04-25T09:52:07;8.50;;;3.77;;
5458;SDS011;2752;49.992;8.422;2023-04-25T09:54:36;7.20;;;3.60;;
5458;SDS011;2752;49.992;8.422;2023-04-25T09:57:04;9.23;;;4.83;;
5458;SDS011;2752;49.992;8.422;2023-04-25T09:59:37;13.97;;;3.90;;
5458;SDS011;2752;49.992;8.422;2023-04-25T10:02:05;8.27;;;3.47;;
5458;SDS011;2752;49.992;8.422;2023-04-25T10:04:33;6.80;;;4.10;;
5458;SDS011;2752;49.992;8.422;2023-04-25T10:07:01;7.03;;;4.07;;
5458;SDS011;2752;49.992;8.422;2023-04-25T10:09:31;9.60;;;3.23;;
5458;SDS011;2752;49.992;8.422;2023-04-25T10:12:00;15.00;;;4.43;;
5458;SDS011;2752;49.992;8.422;2023-04-25T10:14:29;7.80;;;4.07;;
5458;SDS011;2752;49.992;8.422;2023-04-25T10:16:55;9.57;;;3.13;;
5458;SDS011;2752;49.992;8.422;2023-04-25T10:19:23;12.07;;;4.33;;
5458;SDS011;2752;49.992;8.422;2023-04-25T10:21:52;8.93;;;4.80;;
5458;SDS011;2752;49.992;8.422;2023-04-25T10:24:21;7.43;;;4.10;;
5458;SDS011;2752;49.992;8.422;2023-04-25T10:26:49;11.43;;;4.23;;
5458;SDS011;2752;49.992;8.422;2023-04-25T10:29:22;15.23;;;5.10;;
5458;SDS011;2752;49.992;8.422;2023-04-25T10:31:50;8.00;;;4.80;;
5458;SDS011;2752;49.992;8.422;2023-04-25T10:34:16;17.07;;;4.63;;
5458;SDS011;2752;49.992;8.422;2023-04-25T10:36:48;16.80;;;5.37;;
5458;SDS011;2752;49.992;8.422;2023-04-25T10:39:21;9.63;;;4.20;;
5458;SDS011;2752;49.992;8.422;2023-04-25T10:41:52;7.73;;;3.80;;
5458;SDS011;2752;49.992;8.422;2023-04-25T10:44:23;17.33;;;4.00;;
5458;SDS011;2752;49.992;8.422;2023-04-25T10:46:54;11.23;;;3.37;;
5458;SDS011;2752;49.992;8.422;2023-04-25T10:49:28;9.00;;;4.27;;
5458;SDS011;2752;49.992;8.422;2023-04-25T10:52:16;9.43;;;4.00;;
5458;SDS011;2752;49.992;8.422;2023-04-25T10:54:47;8.27;;;3.93;;
5458;SDS011;2752;49.992;8.422;2023-04-25T10:57:25;8.07;;;3.67;;
5458;SDS011;2752;49.992;8.422;2023-04-25T11:00:01;9.80;;;3.90;;
5458;SDS011;2752;49.992;8.422;2023-04-25T11:02:36;13.27;;;4.40;;
5458;SDS011;2752;49.992;8.422;2023-04-25T11:05:04;9.07;;;3.40;;
5458;SDS011;2752;49.992;8.422;2023-04-25T11:07:34;8.50;;;4.00;;
5458;SDS011;2752;49.992;8.422;2023-04-25T11:10:05;11.27;;;4.03;;
5458;SDS011;2752;49.992;8.422;2023-04-25T11:12:32;6.80;;;4.00;;
5458;SDS011;2752;49.992;8.422;2023-04-25T11:15:02;10.50;;;3.30;;
5458;SDS011;2752;49.992;8.422;2023-04-25T11:17:29;21.47;;;3.70;;
5458;SDS011;2752;49.992;8.422;2023-04-25T11:19:56;15.00;;;4.27;;
5458;SDS011;2752;49.992;8.422;2023-04-25T11:22:23;7.00;;;3.10;;
5458;SDS011;2752;49.992;8.422;2023-04-25T11:24:50;7.63;;;3.70;;
5458;SDS011;2752;49.992;8.422;2023-04-25T11:27:17;7.30;;;2.97;;
5458;SDS011;2752;49.992;8.422;2023-04-25T11:29:44;8.90;;;3.40;;
5458;SDS011;2752;49.992;8.422;2023-04-25T11:32:14;9.23;;;3.53;;
5458;SDS011;2752;49.992;8.422;2023-04-25T11:34:42;10.00;;;3.50;;
5458;SDS011;2752;49.992;8.422;2023-04-25T11:37:10;7.37;;;3.90;;
5458;SDS011;2752;49.992;8.422;2023-04-25T11:39:38;8.60;;;3.97;;
5458;SDS011;2752;49.992;8.422;2023-04-25T11:42:08;8.53;;;3.77;;
5458;SDS011;2752;49.992;8.422;2023-04-25T11:44:35;10.60;;;3.10;;
5458;SDS011;2752;49.992;8.422;2023-04-25T11:47:03;6.83;;;3.60;;
5458;SDS011;2752;49.992;8.422;2023-04-25T11:49:31;13.60;;;4.47;;
5458;SDS011;2752;49.992;8.422;2023-04-25T11:51:58;9.90;;;4.30;;
5458;SDS011;2752;49.992;8.422;2023-04-25T11:54:24;11.20;;;3.27;;
5458;SDS011;2752;49.992;8.422;2023-04-25T11:56:51;17.83;;;3.70;;
5458;SDS011;2752;49.992;8.422;2023-04-25T11:59:18;16.70;;;2.37;;
5458;SDS011;2752;49.992;8.422;2023-04-25T12:01:50;7.50;;;3.53;;
5458;SDS011;2752;49.992;8.422;2023-04-25T12:04:18;13.40;;;3.97;;
5458;SDS011;2752;49.992;8.422;2023-04-25T12:06:48;7.67;;;3.17;;
5458;SDS011;2752;49.992;8.422;2023-04-25T12:09:16;13.67;;;3.57;;
5458;SDS011;2752;49.992;8.422;2023-04-25T12:11:44;8.57;;;3.50;;
5458;SDS011;2752;49.992;8.422;2023-04-25T12:14:19;4.50;;;2.70;;
5458;SDS011;2752;49.992;8.422;2023-04-25T12:16:48;10.80;;;4.07;;
5458;SDS011;2752;49.992;8.422;2023-04-25T12:19:14;12.90;;;3.70;;
5458;SDS011;2752;49.992;8.422;2023-04-25T12:21:41;9.80;;;2.80;;
5458;SDS011;2752;49.992;8.422;2023-04-25T12:24:13;6.93;;;3.07;;
5458;SDS011;2752;49.992;8.422;2023-04-25T12:26:48;8.83;;;3.63;;
5458;SDS011;2752;49.992;8.422;2023-04-25T12:29:17;8.40;;;3.10;;
5458;SDS011;2752;49.992;8.422;2023-04-25T12:31:44;13.93;;;3.10;;
5458;SDS011;2752;49.992;8.422;2023-04-25T12:34:11;7.33;;;3.10;;
5458;SDS011;2752;49.992;8.422;2023-04-25T12:36:38;6.40;;;2.83;;
5458;SDS011;2752;49.992;8.422;2023-04-25T12:39:04;5.10;;;2.50;;
5458;SDS011;2752;49.992;8.422;2023-04-25T12:41:33;5.63;;;2.63;;
5458;SDS011;2752;49.992;8.422;2023-04-25T12:43:59;16.63;;;3.07;;
5458;SDS011;2752;49.992;8.422;2023-04-25T12:46:26;11.10;;;3.37;;
5458;SDS011;2752;49.992;8.422;2023-04-25T12:48:53;16.10;;;3.93;;
5458;SDS011;2752;49.992;8.422;2023-04-25T12:51:20;7.50;;;2.63;;
5458;SDS011;2752;49.992;8.422;2023-04-25T12:53:49;9.47;;;4.40;;
5458;SDS011;2752;49.992;8.422;2023-04-25T12:56:16;7.97;;;2.50;;
5458;SDS011;2752;49.992;8.422;2023-04-25T12:58:45;13.03;;;3.07;;
5458;SDS011;2752;49.992;8.422;2023-04-25T13:01:13;11.97;;;2.63;;
5458;SDS011;2752;49.992;8.422;2023-04-25T13:03:39;4.57;;;2.37;;
5458;SDS011;2752;49.992;8.422;2023-04-25T13:06:06;11.07;;;3.67;;
5458;SDS011;2752;49.992;8.422;2023-04-25T13:08:33;10.43;;;3.07;;
5458;SDS011;2752;49.992;8.422;2023-04-25T13:11:01;7.73;;;2.30;;
5458;SDS011;2752;49.992;8.422;2023-04-25T13:13:28;3.37;;;2.20;;
5458;SDS011;2752;49.992;8.422;2023-04-25T13:15:57;9.57;;;2.80;;
5458;SDS011;2752;49.992;8.422;2023-04-25T13:18:24;10.13;;;2.67;;
5458;SDS011;2752;49.992;8.422;2023-04-25T13:20:51;5.63;;;2.50;;
5458;SDS011;2752;49.992;8.422;2023-04-25T13:23:18;5.90;;;3.10;;
5458;SDS011;2752;49.992;8.422;2023-04-25T13:25:45;12.87;;;3.00;;
5458;SDS011;2752;49.992;8.422;2023-04-25T13:28:12;10.30;;;2.97;;
5458;SDS011;2752;49.992;8.422;2023-04-25T13:30:38;5.10;;;2.47;;
5458;SDS011;2752;49.992;8.422;2023-04-25T13:33:06;6.07;;;2.77;;
5458;SDS011;2752;49.992;8.422;2023-04-25T13:35:34;12.27;;;3.07;;
5458;SDS011;2752;49.992;8.422;2023-04-25T13:38:01;11.73;;;2.90;;
5458;SDS011;2752;49.992;8.422;2023-04-25T13:40:29;10.43;;;4.30;;
5458;SDS011;2752;49.992;8.422;2023-04-25T13:42:57;10.30;;;2.77;;
5458;SDS011;2752;49.992;8.422;2023-04-25T13:45:24;3.17;;;1.93;;
5458;SDS011;2752;49.992;8.422;2023-04-25T13:47:50;10.93;;;3.33;;
5458;SDS011;2752;49.992;8.422;2023-04-25T13:50:18;8.90;;;2.40;;
5458;SDS011;2752;49.992;8.422;2023-04-25T13:52:45;8.60;;;2.97;;
5458;SDS011;2752;49.992;8.422;2023-04-25T13:55:12;14.73;;;3.30;;
5458;SDS011;2752;49.992;8.422;2023-04-25T13:57:38;14.73;;;2.33;;
5458;SDS011;2752;49.992;8.422;2023-04-25T14:00:05;11.13;;;2.67;;
5458;SDS011;2752;49.992;8.422;2023-04-25T14:02:34;8.53;;;2.67;;
5458;SDS011;2752;49.992;8.422;2023-04-25T14:05:00;9.03;;;2.43;;
5458;SDS011;2752;49.992;8.422;2023-04-25T14:07:29;12.17;;;3.50;;
5458;SDS011;2752;49.992;8.422;2023-04-25T14:09:56;8.50;;;2.90;;
5458;SDS011;2752;49.992;8.422;2023-04-25T14:12:23;10.40;;;3.40;;
5458;SDS011;2752;49.992;8.422;2023-04-25T14:14:50;6.03;;;2.10;;
5458;SDS011;2752;49.992;8.422;2023-04-25T14:17:17;9.13;;;2.63;;
5458;SDS011;2752;49.992;8.422;2023-04-25T14:19:44;11.30;;;3.00;;
5458;SDS011;2752;49.992;8.422;2023-04-25T14:22:12;7.90;;;2.60;;
5458;SDS011;2752;49.992;8.422;2023-04-25T14:24:41;6.50;;;2.27;;
5458;SDS011;2752;49.992;8.422;2023-04-25T14:27:08;19.93;;;2.97;;
5458;SDS011;2752;49.992;8.422;2023-04-25T14:29:35;12.93;;;2.90;;
5458;SDS011;2752;49.992;8.422;2023-04-25T14:32:02;8.90;;;2.67;;
5458;SDS011;2752;49.992;8.422;2023-04-25T14:34:30;11.40;;;3.20;;
5458;SDS011;2752;49.992;8.422;2023-04-25T14:36:56;14.03;;;2.97;;
5458;SDS011;2752;49.992;8.422;2023-04-25T14:39:23;8.07;;;2.73;;
5458;SDS011;2752;49.992;8.422;2023-04-25T14:41:51;7.00;;;3.03;;
5458;SDS011;2752;49.992;8.422;2023-04-25T14:44:18;11.23;;;2.43;;
5458;SDS011;2752;49.992;8.422;2023-04-25T14:46:44;6.23;;;2.63;;
5458;SDS011;2752;49.992;8.422;2023-04-25T14:49:11;8.17;;;2.60;;
5458;SDS011;2752;49.992;8.422;2023-04-25T14:51:37;5.33;;;2.90;;
5458;SDS011;2752;49.992;8.422;2023-04-25T14:54:04;7.03;;;2.60;;
5458;SDS011;2752;49.992;8.422;2023-04-25T14:56:31;6.57;;;1.90;;
5458;SDS011;2752;49.992;8.422;2023-04-25T14:58:59;3.20;;;2.00;;
5458;SDS011;2752;49.992;8.422;2023-04-25T15:01:26;11.03;;;3.23;;
5458;SDS011;2752;49.992;8.422;2023-04-25T15:03:53;7.70;;;2.63;;
5458;SDS011;2752;49.992;8.422;2023-04-25T15:06:19;8.40;;;2.47;;
5458;SDS011;2752;49.992;8.422;2023-04-25T15:08:46;9.47;;;2.67;;
5458;SDS011;2752;49.992;8.422;2023-04-25T15:11:13;5.47;;;2.27;;